Time;durP1;ratioP1;P1;durP2;ratioP2;P2;SDS_P1;SDS_P2;PMS_P1;PMS_P2;Temp;Humidity;BMP_temperature;BMP_pressure;BME280_temperature;BME280_humidity;BME280_pressure;Samples;Min_cycle;Max_cycle;Signal;HPM_P1;HPM_P2
2023/12/02 00:00:45;;;;;;;7.30;6.60;;;4.90;44.80;;;;;;10394045;28;20238;-77
2023/12/02 00:05:50;;;;;;;6.10;5.57;;;4.90;44.70;;;;;;10391926;28;20773;-77
2023/12/02 00:10:55;;;;;;;6.93;6.27;;;4.90;44.70;;;;;;10392952;28;20594;-77
2023/12/02 00:15:58;;;;;;;6.67;6.07;;;4.90;44.90;;;;;;10393323;28;20234;-76
2023/12/02 00:21:01;;;;;;;6.97;6.27;;;4.90;44.70;;;;;;10390001;28;20229;-76
2023/12/02 00:26:07;;;;;;;6.97;6.37;;;4.90;44.70;;;;;;10392018;28;20229;-76
2023/12/02 00:31:11;;;;;;;6.83;6.23;;;4.90;44.60;;;;;;10385503;28;20299;-76
2023/12/02 00:36:14;;;;;;;7.57;6.87;;;4.90;44.50;;;;;;10392009;28;20245;-76
2023/12/02 00:41:19;;;;;;;7.00;6.40;;;4.80;44.40;;;;;;10395435;28;20289;-76
2023/12/02 00:46:23;;;;;;;7.30;6.60;;;4.80;44.50;;;;;;10391399;28;20244;-76
2023/12/02 00:51:26;;;;;;;7.53;6.83;;;4.70;44.50;;;;;;10394659;28;20268;-76
2023/12/02 00:56:31;;;;;;;7.57;6.87;;;4.70;44.60;;;;;;10393774;28;20709;-76
2023/12/02 01:01:34;;;;;;;7.40;6.70;;;4.60;44.70;;;;;;10394272;28;20333;-76
2023/12/02 01:06:37;;;;;;;7.60;6.90;;;4.60;44.70;;;;;;10395121;28;20284;-76
2023/12/02 01:11:42;;;;;;;7.90;7.20;;;4.60;44.80;;;;;;10390469;28;20234;-75
2023/12/02 01:16:45;;;;;;;8.40;7.60;;;4.60;44.80;;;;;;10386540;28;20262;-77
2023/12/02 01:21:48;;;;;;;7.97;7.17;;;4.50;44.70;;;;;;10383422;28;20234;-76
2023/12/02 01:26:52;;;;;;;7.63;6.93;;;4.50;44.80;;;;;;10390991;28;20738;-76
2023/12/02 01:31:56;;;;;;;7.77;7.07;;;4.40;45.00;;;;;;10389130;28;20222;-76
2023/12/02 01:36:59;;;;;;;7.90;7.10;;;4.40;45.10;;;;;;10381596;28;20226;-75
2023/12/02 01:42:04;;;;;;;8.23;7.47;;;4.40;45.00;;;;;;10390562;28;20249;-75
2023/12/02 01:47:08;;;;;;;8.10;7.30;;;4.40;45.00;;;;;;10393806;28;20234;-75
2023/12/02 01:52:12;;;;;;;9.10;8.20;;;4.30;44.90;;;;;;10391976;28;20233;-75
2023/12/02 01:57:17;;;;;;;8.50;7.70;;;4.30;45.10;;;;;;10403199;28;20722;-75
2023/12/02 02:02:20;;;;;;;9.03;8.13;;;4.30;45.20;;;;;;10401823;28;20720;-75
2023/12/02 02:07:23;;;;;;;10.33;9.23;;;4.30;45.10;;;;;;10399276;28;20308;-75
2023/12/02 02:12:28;;;;;;;9.20;8.30;;;4.30;45.10;;;;;;10405099;28;20280;-74
2023/12/02 02:17:31;;;;;;;9.70;8.70;;;4.30;45.00;;;;;;10394325;28;20242;-74
2023/12/02 02:22:36;;;;;;;10.70;9.70;;;4.30;44.90;;;;;;10398357;28;20280;-75
2023/12/02 02:27:39;;;;;;;12.53;10.87;;;4.30;45.00;;;;;;10402437;28;20229;-74
2023/12/02 02:32:42;;;;;;;10.83;9.73;;;4.30;44.70;;;;;;10399422;28;20329;-75
2023/12/02 02:37:47;;;;;;;12.23;10.93;;;4.20;44.70;;;;;;10397676;28;20230;-74
2023/12/02 02:42:50;;;;;;;11.93;10.23;;;4.20;44.90;;;;;;10397140;28;20252;-75
2023/12/02 02:47:53;;;;;;;12.40;11.10;;;4.30;45.00;;;;;;10401312;28;20913;-74
2023/12/02 02:52:58;;;;;;;12.37;11.03;;;4.10;44.90;;;;;;10401087;28;20321;-74
2023/12/02 02:58:01;;;;;;;11.97;10.40;;;4.00;45.00;;;;;;10399427;28;20732;-74
2023/12/02 03:03:05;;;;;;;12.93;11.63;;;4.00;45.00;;;;;;10398600;28;20260;-75
2023/12/02 03:08:09;;;;;;;13.83;11.50;;;4.10;45.10;;;;;;10403062;28;20875;-74
2023/12/02 03:13:12;;;;;;;12.33;10.97;;;3.90;45.00;;;;;;10399173;28;20230;-74
2023/12/02 03:18:16;;;;;;;11.20;10.03;;;3.90;45.80;;;;;;10399466;28;20234;-75
2023/12/02 03:23:20;;;;;;;12.97;11.17;;;3.90;45.10;;;;;;10398252;28;20225;-74
2023/12/02 03:28:24;;;;;;;12.73;11.10;;;3.90;45.80;;;;;;10397201;28;20241;-75
2023/12/02 03:33:27;;;;;;;12.37;11.07;;;3.90;45.10;;;;;;10395307;28;20230;-74
2023/12/02 03:38:32;;;;;;;13.37;11.23;;;3.90;45.10;;;;;;10398633;28;20225;-74
2023/12/02 03:43:35;;;;;;;12.13;10.80;;;3.90;45.10;;;;;;10398419;28;20229;-74
2023/12/02 03:48:57;;;;;;;13.03;11.63;;;3.90;45.10;;;;;;10394271;28;20234;-75
2023/12/02 03:54:02;;;;;;;13.40;12.00;;;4.00;45.10;;;;;;10399340;28;20233;-75
2023/12/02 03:59:05;;;;;;;12.77;11.47;;;4.00;45.10;;;;;;10393902;28;20230;-75
2023/12/02 04:04:09;;;;;;;13.80;12.20;;;4.00;45.10;;;;;;10398694;28;20242;-75
2023/12/02 04:09:15;;;;;;;12.90;11.50;;;4.00;45.00;;;;;;10397807;28;20386;-74
2023/12/02 04:14:19;;;;;;;13.63;11.80;;;4.00;45.00;;;;;;10388518;28;20230;-75
2023/12/02 04:19:23;;;;;;;12.97;11.10;;;4.00;44.80;;;;;;10395072;28;20240;-74
2023/12/02 04:24:28;;;;;;;11.70;10.50;;;4.00;44.90;;;;;;10388284;28;20255;-75
2023/12/02 04:29:31;;;;;;;12.63;11.30;;;3.90;45.00;;;;;;10393603;28;20240;-74
2023/12/02 04:34:34;;;;;;;12.47;11.13;;;3.90;44.80;;;;;;10397809;28;20242;-74
2023/12/02 04:39:39;;;;;;;13.10;11.03;;;3.90;44.80;;;;;;10389640;28;20320;-74
2023/12/02 04:44:42;;;;;;;11.37;10.17;;;4.00;45.00;;;;;;10394237;28;20257;-74
2023/12/02 04:49:45;;;;;;;13.00;10.87;;;3.90;44.80;;;;;;10398680;28;20237;-75
2023/12/02 04:54:50;;;;;;;12.53;11.27;;;3.80;44.80;;;;;;10397307;28;20713;-75
2023/12/02 04:59:53;;;;;;;12.00;10.70;;;3.80;45.00;;;;;;10393189;28;20308;-75
2023/12/02 05:04:57;;;;;;;11.97;10.73;;;3.80;45.00;;;;;;10390938;28;20317;-74
2023/12/02 05:10:01;;;;;;;10.43;9.30;;;3.80;45.20;;;;;;10395731;28;20269;-74
2023/12/02 05:15:05;;;;;;;11.13;9.03;;;3.80;45.10;;;;;;10394188;28;20233;-75
2023/12/02 05:20:12;;;;;;;10.90;9.80;;;3.80;45.00;;;;;;10393609;28;20234;-75
2023/12/02 05:25:16;;;;;;;10.40;9.30;;;3.80;45.00;;;;;;10391887;28;20320;-75
2023/12/02 05:30:20;;;;;;;10.67;9.07;;;3.80;45.00;;;;;;10398803;28;20317;-74
2023/12/02 05:35:23;;;;;;;11.27;9.50;;;3.70;45.10;;;;;;10402356;28;20229;-74
2023/12/02 05:40:28;;;;;;;10.43;9.33;;;3.80;45.20;;;;;;10402036;28;20607;-74
2023/12/02 05:45:31;;;;;;;10.07;8.63;;;3.60;45.20;;;;;;10403818;28;20321;-75
2023/12/02 05:50:34;;;;;;;9.77;8.77;;;3.60;45.90;;;;;;10401908;28;20233;-74
2023/12/02 05:55:39;;;;;;;9.63;8.60;;;3.60;45.20;;;;;;10403451;28;20708;-75
2023/12/02 06:00:42;;;;;;;9.33;8.27;;;3.60;45.40;;;;;;10399399;28;20229;-75
2023/12/02 06:05:45;;;;;;;9.80;8.77;;;3.60;45.20;;;;;;10397828;28;20230;-75
2023/12/02 06:10:50;;;;;;;11.30;10.10;;;3.60;45.20;;;;;;10402384;28;20235;-75
2023/12/02 06:15:53;;;;;;;10.50;9.40;;;3.60;45.20;;;;;;10397327;28;20261;-75
2023/12/02 06:20:57;;;;;;;10.60;9.50;;;3.50;45.20;;;;;;10403369;28;20230;-75
2023/12/02 06:26:02;;;;;;;10.53;9.43;;;3.50;45.30;;;;;;10398881;28;20242;-75
2023/12/02 06:31:12;;;;;;;10.63;9.33;;;3.40;45.40;;;;;;10398302;28;20324;-74
2023/12/02 06:36:15;;;;;;;9.47;8.50;;;3.40;45.50;;;;;;10402043;28;20257;-74
2023/12/02 06:41:20;;;;;;;9.00;8.03;;;3.40;45.50;;;;;;10401267;28;20759;-74
2023/12/02 06:46:24;;;;;;;10.50;9.10;;;3.40;45.70;;;;;;10395736;28;20239;-74
2023/12/02 06:51:29;;;;;;;10.70;8.67;;;3.40;45.60;;;;;;10400176;28;20233;-74
2023/12/02 06:56:33;;;;;;;10.30;8.63;;;3.40;45.40;;;;;;10400780;28;20721;-74
2023/12/02 07:01:37;;;;;;;9.57;8.27;;;3.40;45.40;;;;;;10399420;28;20230;-74
2023/12/02 07:06:40;;;;;;;11.10;9.37;;;3.40;45.40;;;;;;10403847;28;20911;-75
2023/12/02 07:11:45;;;;;;;10.87;9.37;;;3.50;45.50;;;;;;10402117;28;20726;-74
2023/12/02 07:16:48;;;;;;;9.47;8.53;;;3.50;45.50;;;;;;10392385;28;20234;-74
2023/12/02 07:21:51;;;;;;;10.00;8.60;;;3.40;45.40;;;;;;10398512;28;20671;-74
2023/12/02 07:26:56;;;;;;;9.53;8.53;;;3.40;45.40;;;;;;10402871;28;20226;-75
2023/12/02 07:31:59;;;;;;;9.70;8.57;;;3.40;45.50;;;;;;10400152;28;20230;-74
2023/12/02 07:37:03;;;;;;;8.93;8.03;;;3.40;45.50;;;;;;10393840;28;20258;-74
2023/12/02 07:42:08;;;;;;;10.23;8.83;;;3.40;45.40;;;;;;10399809;28;20336;-74
2023/12/02 07:47:11;;;;;;;11.23;9.23;;;3.50;45.40;;;;;;10397252;28;20256;-74
2023/12/02 07:52:14;;;;;;;9.47;8.47;;;3.50;45.20;;;;;;10390908;28;20760;-75
2023/12/02 07:57:19;;;;;;;11.60;9.73;;;3.60;45.40;;;;;;10401393;28;20237;-74
2023/12/02 08:02:22;;;;;;;10.30;8.80;;;3.50;45.20;;;;;;10395520;28;20316;-75
2023/12/02 08:07:25;;;;;;;11.13;9.27;;;3.50;45.20;;;;;;10397949;28;20234;-74
2023/12/02 08:12:30;;;;;;;11.30;9.43;;;3.40;45.20;;;;;;10391948;28;20233;-75
2023/12/02 08:17:33;;;;;;;11.60;9.87;;;3.40;45.20;;;;;;10386599;28;20242;-75
2023/12/02 08:22:36;;;;;;;11.27;9.73;;;3.40;45.20;;;;;;10392534;28;20367;-74
2023/12/02 08:27:41;;;;;;;11.87;9.67;;;3.40;45.20;;;;;;10385338;28;20732;-75
2023/12/02 08:32:44;;;;;;;9.70;8.70;;;3.30;45.40;;;;;;10390220;28;20234;-76
2023/12/02 08:37:47;;;;;;;10.60;9.23;;;3.30;45.40;;;;;;10386375;28;20229;-76
2023/12/02 08:42:52;;;;;;;12.30;10.13;;;3.30;45.40;;;;;;10387054;28;20233;-76
2023/12/02 08:47:56;;;;;;;11.20;9.93;;;3.20;45.30;;;;;;10384509;28;20230;-76
2023/12/02 08:52:59;;;;;;;10.80;9.70;;;3.20;45.40;;;;;;10389196;28;20229;-76
2023/12/02 08:58:04;;;;;;;12.70;10.93;;;3.20;45.40;;;;;;10385749;28;20237;-76
2023/12/02 09:03:07;;;;;;;11.63;9.93;;;3.20;45.60;;;;;;10385064;28;20259;-74
2023/12/02 09:08:10;;;;;;;10.93;9.17;;;3.20;45.40;;;;;;10383120;28;20238;-74
2023/12/02 09:13:42;;;;;;;12.70;10.53;;;3.20;45.40;;;;;;10390638;28;20803;-74
2023/12/02 09:18:45;;;;;;;13.03;10.87;;;3.20;45.50;;;;;;10384143;28;20708;-75
2023/12/02 09:23:50;;;;;;;11.10;9.67;;;3.20;45.40;;;;;;10382573;28;20808;-74
2023/12/02 09:28:55;;;;;;;12.50;10.40;;;3.10;45.70;;;;;;10375864;28;20230;-74
2023/12/02 09:34:01;;;;;;;12.37;10.90;;;3.10;45.60;;;;;;10378657;28;20258;-75
2023/12/02 09:39:55;;;;;;;11.30;9.93;;;3.10;45.70;;;;;;10369698;28;20731;-76
2023/12/02 09:45:02;;;;;;;11.80;10.47;;;3.10;45.70;;;;;;10382431;28;20232;-76
2023/12/02 09:50:10;;;;;;;13.03;11.17;;;3.10;45.40;;;;;;10387970;28;20806;-75
2023/12/02 09:55:19;;;;;;;15.03;11.73;;;3.20;45.40;;;;;;10382927;28;20313;-77
2023/12/02 10:00:36;;;;;;;13.47;10.67;;;3.30;45.20;;;;;;10380126;28;20316;-76
2023/12/02 10:05:56;;;;;;;12.97;10.90;;;3.10;45.20;;;;;;10382801;28;20232;-74
2023/12/02 10:11:04;;;;;;;12.10;10.43;;;3.00;45.00;;;;;;10402174;28;20230;-76
2023/12/02 10:16:15;;;;;;;14.10;10.93;;;3.00;45.70;;;;;;10411890;28;20234;-75
2023/12/02 10:21:21;;;;;;;13.23;11.67;;;3.00;46.10;;;;;;10413532;28;20635;-80
2023/12/02 10:26:28;;;;;;;11.87;10.43;;;3.20;45.70;;;;;;10407043;28;20257;-79
2023/12/02 10:31:35;;;;;;;13.17;11.67;;;3.10;46.30;;;;;;10405381;28;20905;-77
2023/12/02 10:36:39;;;;;;;11.90;10.50;;;3.10;45.50;;;;;;10406425;28;20233;-77
2023/12/02 10:41:52;;;;;;;13.27;11.27;;;3.10;45.40;;;;;;10413372;28;20236;-78
2023/12/02 10:46:58;;;;;;;12.00;10.73;;;3.00;45.20;;;;;;10414403;28;20696;-77
2023/12/02 10:52:07;;;;;;;10.73;9.60;;;3.00;45.10;;;;;;10414096;28;20225;-78
2023/12/02 10:57:14;;;;;;;14.80;12.90;;;3.00;45.20;;;;;;10414094;28;20704;-77
2023/12/02 11:02:32;;;;;;;13.57;11.23;;;3.00;45.00;;;;;;10413727;28;20302;-78
2023/12/02 11:07:35;;;;;;;11.53;10.20;;;3.00;45.10;;;;;;10370951;28;20317;-77
2023/12/02 11:12:48;;;;;;;10.80;9.60;;;2.90;44.80;;;;;;10370426;28;20757;-77
2023/12/02 11:18:01;;;;;;;12.37;11.07;;;3.00;45.20;;;;;;10396786;28;20316;-77
2023/12/02 11:23:39;;;;;;;12.63;10.67;;;2.80;44.90;;;;;;10409314;28;20233;-75
2023/12/02 11:28:56;;;;;;;11.27;10.07;;;2.80;45.10;;;;;;10372361;28;20241;-76
2023/12/02 11:34:16;;;;;;;11.00;9.47;;;2.70;45.00;;;;;;10407414;28;20324;-77
2023/12/02 11:39:31;;;;;;;12.63;10.53;;;2.80;45.40;;;;;;10404436;28;20225;-75
2023/12/02 11:44:44;;;;;;;11.67;10.37;;;2.60;45.90;;;;;;10404031;28;20244;-75
2023/12/02 11:50:03;;;;;;;12.40;10.80;;;2.70;45.90;;;;;;10401983;28;20236;-76
2023/12/02 11:55:13;;;;;;;13.20;11.00;;;2.80;45.60;;;;;;10421643;28;20312;-76
2023/12/02 12:00:22;;;;;;;11.30;10.07;;;2.80;45.30;;;;;;10412512;28;20257;-75
2023/12/02 12:05:41;;;;;;;11.47;9.87;;;2.90;45.30;;;;;;10410929;28;20241;-75
2023/12/02 12:10:47;;;;;;;14.73;11.97;;;2.80;45.60;;;;;;10394772;28;20254;-76
2023/12/02 12:15:52;;;;;;;12.80;11.50;;;2.90;45.50;;;;;;10405430;28;20261;-76
2023/12/02 12:20:57;;;;;;;12.47;10.97;;;2.90;45.80;;;;;;10418016;28;20238;-76
2023/12/02 12:26:03;;;;;;;14.03;10.63;;;3.00;45.70;;;;;;10422583;28;20256;-76
2023/12/02 12:31:09;;;;;;;13.00;11.63;;;3.00;45.40;;;;;;10417590;28;20318;-75
2023/12/02 12:36:22;;;;;;;12.80;10.53;;;2.90;45.40;;;;;;10420764;28;20303;-76
2023/12/02 12:41:26;;;;;;;14.13;10.77;;;2.90;45.30;;;;;;10414976;28;20221;-73
2023/12/02 12:46:30;;;;;;;13.50;11.53;;;2.90;45.00;;;;;;10405715;28;20352;-75
2023/12/02 12:51:40;;;;;;;15.27;13.17;;;2.90;44.80;;;;;;10407074;28;20237;-76
2023/12/02 12:56:47;;;;;;;14.83;10.97;;;2.80;44.70;;;;;;10408187;28;20233;-76
2023/12/02 13:01:59;;;;;;;14.77;10.60;;;2.80;45.00;;;;;;10408133;28;20233;-76
2023/12/02 13:07:11;;;;;;;12.80;11.17;;;2.90;45.50;;;;;;10406778;28;20240;-76
2023/12/02 13:12:21;;;;;;;15.37;11.20;;;2.80;45.20;;;;;;10407816;28;20229;-76
2023/12/02 13:17:27;;;;;;;15.70;12.77;;;2.80;45.00;;;;;;10409077;28;20308;-78
2023/12/02 13:22:32;;;;;;;13.23;11.53;;;2.90;44.90;;;;;;10409809;28;20233;-77
2023/12/02 13:27:38;;;;;;;17.13;12.93;;;2.70;45.00;;;;;;10407499;28;20309;-75
2023/12/02 13:32:43;;;;;;;16.00;13.30;;;2.70;45.00;;;;;;10408129;28;20268;-76
2023/12/02 13:38:03;;;;;;;16.03;12.40;;;2.80;45.00;;;;;;10406816;28;20260;-76
2023/12/02 13:43:13;;;;;;;13.90;11.73;;;2.60;44.70;;;;;;10407044;28;20759;-74
2023/12/02 13:48:29;;;;;;;11.30;9.90;;;2.60;45.80;;;;;;10412950;28;20241;-75
2023/12/02 13:53:43;;;;;;;13.40;10.93;;;2.60;45.00;;;;;;10417806;28;20236;-75
2023/12/02 13:59:02;;;;;;;12.93;10.60;;;2.50;44.80;;;;;;10422955;28;20316;-76
2023/12/02 14:04:26;;;;;;;12.70;10.90;;;2.40;44.70;;;;;;10422466;28;20244;-76
2023/12/02 14:09:35;;;;;;;12.40;10.40;;;2.40;44.60;;;;;;10421361;28;20232;-76
2023/12/02 14:14:59;;;;;;;11.20;10.00;;;2.50;45.30;;;;;;10408494;28;20313;-75
2023/12/02 14:20:32;;;;;;;13.87;11.30;;;2.30;46.00;;;;;;10405095;28;20708;-75
2023/12/02 14:25:50;;;;;;;13.70;11.20;;;2.40;45.70;;;;;;10398589;28;20255;-76
2023/12/02 14:31:07;;;;;;;12.83;10.93;;;2.50;45.00;;;;;;10406980;28;20232;-75
2023/12/02 14:36:23;;;;;;;13.03;10.97;;;2.40;44.60;;;;;;10407901;28;20292;-76
2023/12/02 14:41:41;;;;;;;14.27;11.00;;;2.40;44.30;;;;;;10405633;28;20245;-75
2023/12/02 14:47:00;;;;;;;10.90;9.63;;;2.30;44.30;;;;;;10409778;28;20765;-75
2023/12/02 14:52:03;;;;;;;13.60;9.83;;;2.20;44.10;;;;;;10411882;28;20253;-75
2023/12/02 14:57:19;;;;;;;10.17;8.87;;;2.10;44.10;;;;;;10396358;28;20723;-75
2023/12/02 15:02:35;;;;;;;9.37;8.13;;;2.10;44.20;;;;;;10412794;28;20236;-75
2023/12/02 15:07:42;;;;;;;11.67;8.20;;;2.00;44.10;;;;;;10412956;28;20232;-75
2023/12/02 15:12:48;;;;;;;8.83;7.87;;;1.90;44.30;;;;;;10390409;28;20250;-76
2023/12/02 15:17:52;;;;;;;7.87;7.07;;;1.90;44.80;;;;;;10382717;28;20239;-75
2023/12/02 15:23:37;;;;;;;7.93;6.90;;;1.90;44.40;;;;;;10381538;28;20246;-74
2023/12/02 15:28:49;;;;;;;9.10;7.83;;;1.90;44.30;;;;;;10391518;28;20229;-75
2023/12/02 15:33:55;;;;;;;8.13;6.80;;;1.90;44.00;;;;;;10392099;28;20265;-75
2023/12/02 15:38:59;;;;;;;7.80;7.03;;;1.80;44.00;;;;;;10395290;28;20246;-74
2023/12/02 15:44:04;;;;;;;7.07;6.03;;;1.80;44.20;;;;;;10396897;28;20242;-75
2023/12/02 15:49:09;;;;;;;6.80;6.10;;;1.80;44.20;;;;;;10393129;28;20703;-74
2023/12/02 15:54:15;;;;;;;6.33;5.73;;;1.90;44.00;;;;;;10389465;28;20349;-74
2023/12/02 15:59:21;;;;;;;5.77;5.27;;;1.80;43.60;;;;;;10398386;28;20229;-75
2023/12/02 16:04:26;;;;;;;6.17;5.30;;;1.80;43.70;;;;;;10392838;28;20237;-75
2023/12/02 16:09:31;;;;;;;5.40;4.90;;;1.90;43.90;;;;;;10394724;28;20795;-75
2023/12/02 16:14:35;;;;;;;6.10;5.27;;;1.90;44.10;;;;;;10383953;28;20248;-75
2023/12/02 16:19:38;;;;;;;5.57;4.83;;;2.00;44.00;;;;;;10395466;28;21123;-75
2023/12/02 16:24:42;;;;;;;5.50;5.00;;;2.10;43.80;;;;;;10385500;28;20316;-75
2023/12/02 16:29:52;;;;;;;5.17;4.67;;;2.10;43.60;;;;;;10391366;28;20238;-74
2023/12/02 16:34:56;;;;;;;4.73;4.33;;;2.10;42.50;;;;;;10391042;28;20234;-74
2023/12/02 16:40:00;;;;;;;5.27;4.70;;;2.10;42.90;;;;;;10385272;28;20230;-75
2023/12/02 16:45:15;;;;;;;5.03;4.53;;;2.00;42.40;;;;;;10375891;28;20229;-75
2023/12/02 16:50:24;;;;;;;5.10;4.60;;;2.00;42.50;;;;;;10374445;28;20240;-75
2023/12/02 16:55:29;;;;;;;6.00;4.97;;;1.80;42.70;;;;;;10384521;28;20241;-75
2023/12/02 17:00:37;;;;;;;5.60;4.60;;;1.80;43.10;;;;;;10379253;28;20240;-76
2023/12/02 17:06:05;;;;;;;4.47;4.07;;;1.80;43.20;;;;;;10380387;28;20890;-76
2023/12/02 17:11:11;;;;;;;5.30;4.80;;;1.80;42.70;;;;;;10373078;28;20609;-75
2023/12/02 17:16:57;;;;;;;4.77;4.37;;;1.90;43.20;;;;;;10387139;28;20324;-75
2023/12/02 17:22:05;;;;;;;6.97;5.80;;;1.90;43.10;;;;;;10401363;28;20245;-74
2023/12/02 17:27:10;;;;;;;6.30;5.70;;;1.90;43.30;;;;;;10403405;28;20605;-74
2023/12/02 17:32:15;;;;;;;8.53;7.63;;;2.00;43.30;;;;;;10402789;28;20307;-75
2023/12/02 17:37:18;;;;;;;8.93;7.20;;;2.00;43.20;;;;;;10403221;28;20237;-75
2023/12/02 17:42:21;;;;;;;11.57;8.80;;;2.00;43.20;;;;;;10402663;28;20233;-74
2023/12/02 17:47:25;;;;;;;7.80;7.00;;;1.90;42.90;;;;;;10403183;28;20232;-74
2023/12/02 17:52:29;;;;;;;7.37;6.57;;;1.90;42.90;;;;;;10402397;28;20230;-75
2023/12/02 17:57:32;;;;;;;7.17;6.47;;;1.80;42.70;;;;;;10402986;28;20610;-75
2023/12/02 18:02:37;;;;;;;6.77;6.07;;;1.80;42.90;;;;;;10402400;28;20237;-75
2023/12/02 18:07:40;;;;;;;6.73;6.03;;;1.80;42.40;;;;;;10402252;28;20253;-74
2023/12/02 18:12:43;;;;;;;7.60;5.60;;;1.70;42.60;;;;;;10401824;28;20241;-75
2023/12/02 18:17:48;;;;;;;6.03;5.43;;;1.60;42.40;;;;;;10402052;28;20229;-75
2023/12/02 18:22:51;;;;;;;4.93;4.43;;;1.60;42.10;;;;;;10400989;28;20238;-74
2023/12/02 18:27:55;;;;;;;4.53;4.13;;;1.50;41.90;;;;;;10400793;28;20249;-74
2023/12/02 18:32:59;;;;;;;4.33;3.87;;;1.40;41.80;;;;;;10402029;28;20746;-75
2023/12/02 18:38:02;;;;;;;5.23;4.73;;;1.40;42.30;;;;;;10408215;28;20252;-75
2023/12/02 18:43:06;;;;;;;4.97;4.47;;;1.40;42.70;;;;;;10408129;28;20315;-74
2023/12/02 18:48:10;;;;;;;6.07;5.47;;;1.50;43.10;;;;;;10408598;28;20324;-74
2023/12/02 18:53:14;;;;;;;5.37;4.87;;;1.80;43.10;;;;;;10407466;28;20245;-74
2023/12/02 18:58:17;;;;;;;5.57;5.07;;;1.70;42.80;;;;;;10407358;28;20336;-75
2023/12/02 19:03:22;;;;;;;6.30;5.03;;;1.80;42.70;;;;;;10407934;28;20766;-74
2023/12/02 19:08:25;;;;;;;8.23;6.83;;;1.80;44.40;;;;;;10408259;28;20279;-73
2023/12/02 19:13:31;;;;;;;9.50;8.60;;;2.00;44.30;;;;;;10408553;28;20238;-74
2023/12/02 19:18:36;;;;;;;8.30;7.50;;;2.20;43.80;;;;;;10409190;28;20229;-74
2023/12/02 19:23:39;;;;;;;8.10;7.30;;;2.30;43.40;;;;;;10409610;28;20677;-74
2023/12/02 19:28:43;;;;;;;8.23;7.43;;;2.30;43.20;;;;;;10408870;28;20230;-74
2023/12/02 19:33:47;;;;;;;8.23;7.43;;;2.40;43.30;;;;;;10407965;28;20247;-74
2023/12/02 19:38:50;;;;;;;8.33;6.93;;;2.50;43.20;;;;;;10409159;28;20234;-73
2023/12/02 19:43:53;;;;;;;7.63;6.93;;;2.50;43.20;;;;;;10408157;28;20240;-74
2023/12/02 19:48:58;;;;;;;8.70;7.90;;;2.50;42.80;;;;;;10407712;28;20233;-74
2023/12/02 19:54:01;;;;;;;8.77;7.90;;;2.60;42.30;;;;;;10406308;28;20661;-73
2023/12/02 19:59:04;;;;;;;8.33;7.53;;;2.50;42.40;;;;;;10407853;28;20470;-73
2023/12/02 20:04:10;;;;;;;8.93;8.03;;;2.40;42.50;;;;;;10408169;28;20257;-73
2023/12/02 20:09:13;;;;;;;8.47;7.67;;;2.40;42.40;;;;;;10409387;28;20249;-73
2023/12/02 20:14:17;;;;;;;8.57;7.67;;;2.40;42.50;;;;;;10406927;28;20233;-74
2023/12/02 20:19:22;;;;;;;8.03;7.23;;;2.30;42.40;;;;;;10413587;28;20237;-73
2023/12/02 20:24:26;;;;;;;9.67;8.63;;;2.30;42.20;;;;;;10408530;28;20317;-72
2023/12/02 20:29:29;;;;;;;8.60;7.80;;;2.20;42.40;;;;;;10401371;28;20240;-71
2023/12/02 20:34:35;;;;;;;8.00;7.17;;;2.20;42.40;;;;;;10400612;28;20243;-71
2023/12/02 20:39:38;;;;;;;7.53;6.83;;;2.20;42.10;;;;;;10400706;28;20240;-71
2023/12/02 20:44:42;;;;;;;7.00;6.30;;;2.10;42.30;;;;;;10400001;28;20230;-71
2023/12/02 20:49:47;;;;;;;6.20;5.70;;;2.10;42.30;;;;;;10400535;28;20299;-71
2023/12/02 20:54:50;;;;;;;6.10;5.50;;;2.10;42.40;;;;;;10399749;28;20349;-71
2023/12/02 20:59:53;;;;;;;5.77;5.27;;;2.10;42.30;;;;;;10399008;28;20248;-71
2023/12/02 21:04:58;;;;;;;5.37;4.97;;;2.10;42.50;;;;;;10399280;28;20252;-71
2023/12/02 21:10:03;;;;;;;5.00;4.60;;;2.10;42.30;;;;;;10399082;28;20261;-71
2023/12/02 21:15:08;;;;;;;4.60;4.20;;;2.00;42.00;;;;;;10399389;28;20826;-72
2023/12/02 21:20:13;;;;;;;4.87;4.47;;;1.90;42.10;;;;;;10398547;28;20230;-71
2023/12/02 21:25:17;;;;;;;4.87;4.43;;;1.90;42.20;;;;;;10400996;28;20330;-72
2023/12/02 21:30:39;;;;;;;5.30;4.80;;;1.90;42.30;;;;;;10370727;28;21000;-72
2023/12/02 21:35:52;;;;;;;5.43;4.93;;;1.80;41.80;;;;;;10380976;28;20248;-72
2023/12/02 21:40:55;;;;;;;5.43;4.93;;;1.70;42.10;;;;;;10379539;28;20230;-72
2023/12/02 21:45:59;;;;;;;5.83;5.23;;;1.70;42.50;;;;;;10379920;28;20240;-72
2023/12/02 21:51:08;;;;;;;5.77;5.27;;;1.60;42.50;;;;;;10374318;28;20228;-72
2023/12/02 21:56:12;;;;;;;5.67;5.17;;;1.50;42.30;;;;;;10377598;28;20233;-72
2023/12/02 22:01:18;;;;;;;5.53;5.03;;;1.40;42.50;;;;;;10379349;28;20268;-72
2023/12/02 22:06:49;;;;;;;5.77;5.23;;;1.50;42.70;;;;;;10378083;28;21319;-72
2023/12/02 22:11:52;;;;;;;6.00;5.50;;;1.40;42.40;;;;;;10382969;28;20312;-71
2023/12/02 22:16:58;;;;;;;6.30;5.70;;;1.40;42.50;;;;;;10386411;28;20230;-72
2023/12/02 22:22:06;;;;;;;6.10;5.60;;;1.40;42.10;;;;;;10382947;28;20234;-72
2023/12/02 22:27:17;;;;;;;5.83;5.33;;;1.30;42.00;;;;;;10388569;28;20228;-71
2023/12/02 22:32:24;;;;;;;5.20;4.80;;;1.30;42.20;;;;;;10382249;28;20228;-71
2023/12/02 22:37:30;;;;;;;6.03;5.23;;;1.30;42.30;;;;;;10380658;28;20560;-71
2023/12/02 22:42:33;;;;;;;6.63;6.03;;;1.30;42.60;;;;;;10383673;28;20241;-71
2023/12/02 22:47:36;;;;;;;6.50;5.90;;;1.30;42.30;;;;;;10384559;28;20229;-71
2023/12/02 22:52:40;;;;;;;5.70;5.20;;;1.20;42.10;;;;;;10383103;28;20241;-72
2023/12/02 22:57:44;;;;;;;5.87;5.27;;;1.20;42.00;;;;;;10383090;28;20733;-71
2023/12/02 23:02:47;;;;;;;5.40;4.90;;;1.20;42.00;;;;;;10386494;28;20308;-71
2023/12/02 23:07:56;;;;;;;4.90;4.47;;;1.20;41.90;;;;;;10387810;28;20759;-72
2023/12/02 23:12:59;;;;;;;4.70;4.30;;;1.10;41.60;;;;;;10386131;28;21031;-72
2023/12/02 23:18:05;;;;;;;4.23;3.90;;;1.10;41.60;;;;;;10385892;28;20241;-72
2023/12/02 23:23:10;;;;;;;4.20;3.80;;;1.10;42.40;;;;;;10385556;28;20233;-72
2023/12/02 23:28:13;;;;;;;4.00;3.70;;;1.10;41.80;;;;;;10386748;28;20687;-72
2023/12/02 23:33:17;;;;;;;3.73;3.43;;;1.10;42.00;;;;;;10382687;28;20268;-72
2023/12/02 23:38:21;;;;;;;5.17;4.67;;;1.10;41.80;;;;;;10382231;28;20226;-72
2023/12/02 23:43:30;;;;;;;5.13;4.63;;;1.00;41.70;;;;;;10380448;28;20324;-72
2023/12/02 23:48:34;;;;;;;5.07;4.33;;;0.90;41.40;;;;;;10384946;28;21406;-72
2023/12/02 23:53:39;;;;;;;3.80;3.50;;;1.00;41.90;;;;;;10384319;28;20241;-72
2023/12/02 23:58:42;;;;;;;4.80;4.40;;;1.00;42.00;;;;;;10380832;28;20267;-72
